Greifswald — 3FEC8 — position and weather

sailwx.info

Track history (hours):
 
Tides and Currents Weather Stations Pressure Air Temp Water Temp Dewpoint Dewpoint Depression Visibility Wind Speed Wind Dir Waves Ship Positions

Greifswald

Last reported at 2018-Apr-16 06:03 UTC. Time now 2018-Apr-20 10:58 UTC.
Position N 45°20' E 032°05'.

Length 191 m; draft 6.6 m.

Type: Passenger vessel. MMSI: 370492000.

Date/timePositionNaut miles runAvg speedWind from/ knotsBaromVisibWave heightAir tempDewpointWater temp
2018-Apr-16 06:03N 45°20' E 032°05'510.1
2018-Apr-16 05:33N 45°24' E 032°00'310.1
2018-Apr-16 05:18N 45°26' E 031°58'410.1
2018-Apr-16 04:52N 45°29' E 031°54'410.3
2018-Apr-16 04:31N 45°32' E 031°50'510.1
2018-Apr-16 03:58N 45°36' E 031°45'510.0
2018-Apr-16 03:31N 45°39' E 031°40'510.0
2018-Apr-16 03:00N 45°42' E 031°35'610.1
2018-Apr-16 02:27N 45°47' E 031°29'410.1
2018-Apr-16 02:01N 45°50' E 031°25'5 9.8
2018-Apr-16 01:30N 45°54' E 031°21'5 9.7
2018-Apr-16 01:01N 45°58' E 031°16'5 9.8
2018-Apr-16 00:31N 46°01' E 031°12'510.0
2018-Apr-16 00:01N 46°05' E 031°07'510.0
2018-Apr-15 23:31N 46°09' E 031°02'510.1
2018-Apr-15 23:00N 46°12' E 030°57'5 9.5
2018-Apr-15 22:30N 46°16' E 030°52'5 9.6
2018-Apr-15 22:00N 46°18' E 030°46'5 9.0
2018-Apr-15 21:29N 46°20' E 030°40'1 2.3
2018-Apr-15 21:00N 46°21' E 030°39'0 0.0
2018-Apr-15 20:05N 46°21' E 030°39'0 0.0
2018-Apr-15 20:00N 46°21' E 030°39'0 0.0
2018-Apr-15 19:05N 46°21' E 030°39'0 0.1
2018-Apr-15 19:00N 46°21' E 030°39'0 0.0
2018-Apr-15 18:05N 46°21' E 030°39'0 0.0
2018-Apr-15 18:00N 46°21' E 030°39'0 0.0
2018-Apr-15 17:05N 46°21' E 030°39'0 0.1
2018-Apr-15 17:01N 46°21' E 030°39'0 0.0
2018-Apr-15 16:05N 46°21' E 030°39'0 0.0
2018-Apr-15 16:01N 46°21' E 030°39'0 0.0
2018-Apr-15 15:04N 46°21' E 030°39'0 0.1
2018-Apr-15 15:01N 46°21' E 030°39'0 0.0
2018-Apr-15 14:05N 46°21' E 030°39'0 0.1
2018-Apr-15 14:00N 46°21' E 030°39'0 0.0
2018-Apr-15 13:05N 46°21' E 030°39'0 0.1
2018-Apr-15 13:00N 46°21' E 030°39'0 0.0
2018-Apr-15 12:05N 46°21' E 030°39'0 0.1
2018-Apr-15 12:01N 46°21' E 030°39'0 0.0
2018-Apr-15 11:05N 46°21' E 030°39'0 0.1
2018-Apr-15 11:00N 46°21' E 030°39'0 0.0
2018-Apr-15 10:05N 46°21' E 030°39'0 0.0
2018-Apr-15 10:00N 46°21' E 030°39'0 0.0
2018-Apr-15 09:05N 46°21' E 030°39'0 0.1
2018-Apr-15 09:00N 46°21' E 030°39'0 0.0
2018-Apr-15 08:05N 46°21' E 030°39'0 0.0
2018-Apr-15 08:00N 46°21' E 030°39'0 0.0
2018-Apr-15 07:05N 46°21' E 030°39'0 0.1
2018-Apr-15 07:00N 46°21' E 030°39'0 0.0
2018-Apr-15 06:05N 46°21' E 030°39'0 0.0
2018-Apr-15 06:00N 46°21' E 030°39'0 0.0
2018-Apr-15 05:05N 46°21' E 030°39'0 0.0
2018-Apr-15 05:01N 46°21' E 030°39'0 0.0
2018-Apr-15 04:05N 46°21' E 030°39'0 0.0
2018-Apr-15 04:00N 46°21' E 030°39'0 0.0
2018-Apr-15 03:05N 46°21' E 030°39'0 0.0
2018-Apr-15 03:00N 46°21' E 030°39'0 0.0
2018-Apr-15 02:04N 46°21' E 030°39'0 0.0
2018-Apr-15 02:00N 46°21' E 030°39'1 0.7
2018-Apr-15 01:05N 46°20' E 030°40'1 6.6
2018-Apr-15 01:00N 46°20' E 030°40'4 3.9
2018-Apr-14 23:57N 46°17' E 030°44'0 0.1
2018-Apr-14 23:03N 46°17' E 030°44'0 0.0
2018-Apr-14 22:51N 46°17' E 030°44'0 0.0
2018-Apr-14 22:03N 46°17' E 030°44'0 0.1
2018-Apr-14 21:57N 46°17' E 030°44'0 0.0
2018-Apr-14 20:54N 46°17' E 030°44'0 0.0
2018-Apr-14 19:57N 46°17' E 030°44'0 0.0
2018-Apr-14 18:57N 46°17' E 030°44'0 0.0
2018-Apr-14 18:03N 46°17' E 030°44'0 0.0
2018-Apr-14 17:05N 46°17' E 030°44'0 1.6
2018-Apr-14 17:00N 46°17' E 030°44'9 9.1
2018-Apr-14 16:03N 46°08' E 030°46'210.7
2018-Apr-14 15:54N 46°07' E 030°46'910.7
2018-Apr-14 15:05N 45°58' E 030°47'110.3
2018-Apr-14 15:00N 45°57' E 030°47'1010.5
2018-Apr-14 14:02N 45°47' E 030°46'112.5
2018-Apr-14 13:59N 45°46' E 030°46'1110.7
2018-Apr-14 12:59N 45°36' E 030°44'  
2018-Apr-11 03:52N 44°55' E 030°37'1315.2
2018-Apr-11 03:00N 45°08' E 030°40'815.4
2018-Apr-11 02:29N 45°16' E 030°41'815.3
2018-Apr-11 01:59N 45°24' E 030°42'715.2
2018-Apr-11 01:30N 45°31' E 030°44'815.2
2018-Apr-11 01:00N 45°38' E 030°45'815.2
2018-Apr-11 00:30N 45°46' E 030°46'815.1
2018-Apr-11 00:00N 45°53' E 030°47'714.9
2018-Apr-10 23:30N 46°01' E 030°47'714.9
2018-Apr-10 23:00N 46°08' E 030°46'714.9
2018-Apr-10 22:30N 46°16' E 030°45'510.5
2018-Apr-10 21:59N 46°20' E 030°40'1 1.1
2018-Apr-10 20:53N 46°21' E 030°39'0 0.0
2018-Apr-10 19:56N 46°21' E 030°39'0 0.0
2018-Apr-10 18:56N 46°21' E 030°39'0 0.0
2018-Apr-10 17:53N 46°21' E 030°39'0 0.0
2018-Apr-10 16:56N 46°21' E 030°39'0 0.0
2018-Apr-10 14:50N 46°21' E 030°39'0 0.0
2018-Apr-10 13:59N 46°21' E 030°39'0 0.0
2018-Apr-10 12:56N 46°21' E 030°39'0 0.0
2018-Apr-10 11:59N 46°21' E 030°39'0 0.0
2018-Apr-10 10:59N 46°21' E 030°39'4 3.5
2018-Apr-10 09:59N 46°19' E 030°43'4 1.9
2018-Apr-10 07:57N 46°15' E 030°45'2 2.0
2018-Apr-10 06:59N 46°15' E 030°47'5 9.0
2018-Apr-10 06:25N 46°16' E 030°55'2514.7
2018-Apr-10 04:42N 45°59' E 031°21'315.2
2018-Apr-10 04:30N 45°57' E 031°24'1215.2
2018-Apr-10 03:43N 45°48' E 031°36'314.1
2018-Apr-10 03:30N 45°46' E 031°39'713.1
2018-Apr-10 03:00N 45°41' E 031°45'713.1
2018-Apr-10 02:30N 45°37' E 031°52'713.2
2018-Apr-10 02:00N 45°31' E 031°57'33512.7
2018-Apr-08 23:43N 42°38' E 038°37'412.9
2018-Apr-08 23:26N 42°37' E 038°41'612.9
2018-Apr-08 22:56N 42°34' E 038°49'613.0
2018-Apr-08 22:30N 42°32' E 038°56'613.1
2018-Apr-08 22:01N 42°29' E 039°04'612.7
2018-Apr-08 21:30N 42°27' E 039°12'913.1
2018-Apr-08 20:51N 42°23' E 039°23'512.8
2018-Apr-08 20:29N 42°22' E 039°29'613.0
2018-Apr-08 20:01N 42°19' E 039°36'713.0
2018-Apr-08 19:30N 42°17' E 039°45'712.9
2018-Apr-08 19:00N 42°14' E 039°53'  
2018-Apr-06 09:34N 42°53' E 037°40'110.5
2018-Apr-06 09:30N 42°54' E 037°39'510.5
2018-Apr-06 09:00N 42°56' E 037°33'510.7
2018-Apr-06 08:30N 42°58' E 037°26'  
Track history (hours):
 
Tides and Currents Weather Stations Pressure Air Temp Water Temp Dewpoint Dewpoint Depression Visibility Wind Speed Wind Dir Waves Ship Positions

Greifswald

Last reported at 2018-Apr-16 06:03 UTC. Time now 2018-Apr-20 10:58 UTC.
Position N 45°20' E 032°05'.

Length 191 m; draft 6.6 m.

Type: Passenger vessel. MMSI: 370492000.

Date/timePositionNaut miles runAvg speedWind from/ knotsBaromVisibWave heightAir tempDewpointWater temp
2018-Apr-16 06:03N 45°20' E 032°05'510.1
2018-Apr-16 05:33N 45°24' E 032°00'310.1
2018-Apr-16 05:18N 45°26' E 031°58'410.1
2018-Apr-16 04:52N 45°29' E 031°54'410.3
2018-Apr-16 04:31N 45°32' E 031°50'510.1
2018-Apr-16 03:58N 45°36' E 031°45'510.0
2018-Apr-16 03:31N 45°39' E 031°40'510.0
2018-Apr-16 03:00N 45°42' E 031°35'610.1
2018-Apr-16 02:27N 45°47' E 031°29'410.1
2018-Apr-16 02:01N 45°50' E 031°25'5 9.8
2018-Apr-16 01:30N 45°54' E 031°21'5 9.7
2018-Apr-16 01:01N 45°58' E 031°16'5 9.8
2018-Apr-16 00:31N 46°01' E 031°12'510.0
2018-Apr-16 00:01N 46°05' E 031°07'510.0
2018-Apr-15 23:31N 46°09' E 031°02'510.1
2018-Apr-15 23:00N 46°12' E 030°57'5 9.5
2018-Apr-15 22:30N 46°16' E 030°52'5 9.6
2018-Apr-15 22:00N 46°18' E 030°46'5 9.0
2018-Apr-15 21:29N 46°20' E 030°40'1 2.3
2018-Apr-15 21:00N 46°21' E 030°39'0 0.0
2018-Apr-15 20:05N 46°21' E 030°39'0 0.0
2018-Apr-15 20:00N 46°21' E 030°39'0 0.0
2018-Apr-15 19:05N 46°21' E 030°39'0 0.1
2018-Apr-15 19:00N 46°21' E 030°39'0 0.0
2018-Apr-15 18:05N 46°21' E 030°39'0 0.0
2018-Apr-15 18:00N 46°21' E 030°39'0 0.0
2018-Apr-15 17:05N 46°21' E 030°39'0 0.1
2018-Apr-15 17:01N 46°21' E 030°39'0 0.0
2018-Apr-15 16:05N 46°21' E 030°39'0 0.0
2018-Apr-15 16:01N 46°21' E 030°39'0 0.0
2018-Apr-15 15:04N 46°21' E 030°39'0 0.1
2018-Apr-15 15:01N 46°21' E 030°39'0 0.0
2018-Apr-15 14:05N 46°21' E 030°39'0 0.1
2018-Apr-15 14:00N 46°21' E 030°39'0 0.0
2018-Apr-15 13:05N 46°21' E 030°39'0 0.1
2018-Apr-15 13:00N 46°21' E 030°39'0 0.0
2018-Apr-15 12:05N 46°21' E 030°39'0 0.1
2018-Apr-15 12:01N 46°21' E 030°39'0 0.0
2018-Apr-15 11:05N 46°21' E 030°39'0 0.1
2018-Apr-15 11:00N 46°21' E 030°39'0 0.0
2018-Apr-15 10:05N 46°21' E 030°39'0 0.0
2018-Apr-15 10:00N 46°21' E 030°39'0 0.0
2018-Apr-15 09:05N 46°21' E 030°39'0 0.1
2018-Apr-15 09:00N 46°21' E 030°39'0 0.0
2018-Apr-15 08:05N 46°21' E 030°39'0 0.0
2018-Apr-15 08:00N 46°21' E 030°39'0 0.0
2018-Apr-15 07:05N 46°21' E 030°39'0 0.1
2018-Apr-15 07:00N 46°21' E 030°39'0 0.0
2018-Apr-15 06:05N 46°21' E 030°39'0 0.0
2018-Apr-15 06:00N 46°21' E 030°39'0 0.0
2018-Apr-15 05:05N 46°21' E 030°39'0 0.0
2018-Apr-15 05:01N 46°21' E 030°39'0 0.0
2018-Apr-15 04:05N 46°21' E 030°39'0 0.0
2018-Apr-15 04:00N 46°21' E 030°39'0 0.0
2018-Apr-15 03:05N 46°21' E 030°39'0 0.0
2018-Apr-15 03:00N 46°21' E 030°39'0 0.0
2018-Apr-15 02:04N 46°21' E 030°39'0 0.0
2018-Apr-15 02:00N 46°21' E 030°39'1 0.7
2018-Apr-15 01:05N 46°20' E 030°40'1 6.6
2018-Apr-15 01:00N 46°20' E 030°40'4 3.9
2018-Apr-14 23:57N 46°17' E 030°44'0 0.1
2018-Apr-14 23:03N 46°17' E 030°44'0 0.0
2018-Apr-14 22:51N 46°17' E 030°44'0 0.0
2018-Apr-14 22:03N 46°17' E 030°44'0 0.1
2018-Apr-14 21:57N 46°17' E 030°44'0 0.0
2018-Apr-14 20:54N 46°17' E 030°44'0 0.0
2018-Apr-14 19:57N 46°17' E 030°44'0 0.0
2018-Apr-14 18:57N 46°17' E 030°44'0 0.0
2018-Apr-14 18:03N 46°17' E 030°44'0 0.0
2018-Apr-14 17:05N 46°17' E 030°44'0 1.6
2018-Apr-14 17:00N 46°17' E 030°44'9 9.1
2018-Apr-14 16:03N 46°08' E 030°46'210.7
2018-Apr-14 15:54N 46°07' E 030°46'910.7
2018-Apr-14 15:05N 45°58' E 030°47'110.3
2018-Apr-14 15:00N 45°57' E 030°47'1010.5
2018-Apr-14 14:02N 45°47' E 030°46'112.5
2018-Apr-14 13:59N 45°46' E 030°46'1110.7
2018-Apr-14 12:59N 45°36' E 030°44'  
2018-Apr-11 03:52N 44°55' E 030°37'1315.2
2018-Apr-11 03:00N 45°08' E 030°40'815.4
2018-Apr-11 02:29N 45°16' E 030°41'815.3
2018-Apr-11 01:59N 45°24' E 030°42'715.2
2018-Apr-11 01:30N 45°31' E 030°44'815.2
2018-Apr-11 01:00N 45°38' E 030°45'815.2
2018-Apr-11 00:30N 45°46' E 030°46'815.1
2018-Apr-11 00:00N 45°53' E 030°47'714.9
2018-Apr-10 23:30N 46°01' E 030°47'714.9
2018-Apr-10 23:00N 46°08' E 030°46'714.9
2018-Apr-10 22:30N 46°16' E 030°45'510.5
2018-Apr-10 21:59N 46°20' E 030°40'1 1.1
2018-Apr-10 20:53N 46°21' E 030°39'0 0.0
2018-Apr-10 19:56N 46°21' E 030°39'0 0.0
2018-Apr-10 18:56N 46°21' E 030°39'0 0.0
2018-Apr-10 17:53N 46°21' E 030°39'0 0.0
2018-Apr-10 16:56N 46°21' E 030°39'0 0.0
2018-Apr-10 14:50N 46°21' E 030°39'0 0.0
2018-Apr-10 13:59N 46°21' E 030°39'0 0.0
2018-Apr-10 12:56N 46°21' E 030°39'0 0.0
2018-Apr-10 11:59N 46°21' E 030°39'0 0.0
2018-Apr-10 10:59N 46°21' E 030°39'4 3.5
2018-Apr-10 09:59N 46°19' E 030°43'4 1.9
2018-Apr-10 07:57N 46°15' E 030°45'2 2.0
2018-Apr-10 06:59N 46°15' E 030°47'5 9.0
2018-Apr-10 06:25N 46°16' E 030°55'2514.7
2018-Apr-10 04:42N 45°59' E 031°21'315.2
2018-Apr-10 04:30N 45°57' E 031°24'1215.2
2018-Apr-10 03:43N 45°48' E 031°36'314.1
2018-Apr-10 03:30N 45°46' E 031°39'713.1
2018-Apr-10 03:00N 45°41' E 031°45'713.1
2018-Apr-10 02:30N 45°37' E 031°52'713.2
2018-Apr-10 02:00N 45°31' E 031°57'33512.7
2018-Apr-08 23:43N 42°38' E 038°37'412.9
2018-Apr-08 23:26N 42°37' E 038°41'612.9
2018-Apr-08 22:56N 42°34' E 038°49'613.0
2018-Apr-08 22:30N 42°32' E 038°56'613.1
2018-Apr-08 22:01N 42°29' E 039°04'612.7
2018-Apr-08 21:30N 42°27' E 039°12'913.1
2018-Apr-08 20:51N 42°23' E 039°23'512.8
2018-Apr-08 20:29N 42°22' E 039°29'613.0
2018-Apr-08 20:01N 42°19' E 039°36'713.0
2018-Apr-08 19:30N 42°17' E 039°45'712.9
2018-Apr-08 19:00N 42°14' E 039°53'  
2018-Apr-06 09:34N 42°53' E 037°40'110.5
2018-Apr-06 09:30N 42°54' E 037°39'510.5
2018-Apr-06 09:00N 42°56' E 037°33'510.7
2018-Apr-06 08:30N 42°58' E 037°26'  

Dump ship's entire track history